Time;durP1;ratioP1;P1;durP2;ratioP2;P2;SDS_P1;SDS_P2;PMS_P1;PMS_P2;Temp;Humidity;BMP_temperature;BMP_pressure;BME280_temperature;BME280_humidity;BME280_pressure;Samples;Min_cycle;Max_cycle;Signal;HPM_P1;HPM_P2
2021/09/18 00:00:50;;;;;;;5.10;4.70;;;16.60;1.00;;;;;;5112705;28;20188;-58
2021/09/18 00:03:16;;;;;;;5.40;4.50;;;16.60;1.00;;;;;;5113047;28;20183;-57
2021/09/18 00:05:41;;;;;;;4.53;4.13;;;16.60;1.00;;;;;;5113176;28;20809;-59
2021/09/18 00:08:07;;;;;;;3.83;3.53;;;16.50;1.00;;;;;;5113054;28;20205;-57
2021/09/18 00:10:33;;;;;;;4.77;4.37;;;16.40;1.00;;;;;;5112247;28;20183;-57
2021/09/18 00:12:58;;;;;;;9.40;4.40;;;16.20;1.00;;;;;;5112255;28;20180;-58
2021/09/18 00:15:24;;;;;;;5.63;4.10;;;16.50;1.00;;;;;;5106217;28;20196;-57
2021/09/18 00:17:49;;;;;;;4.80;3.77;;;16.40;1.00;;;;;;5113070;28;20285;-58
2021/09/18 00:20:15;;;;;;;5.80;4.37;;;16.50;1.00;;;;;;5108704;28;20175;-58
2021/09/18 00:22:40;;;;;;;4.63;4.17;;;16.40;1.00;;;;;;5106332;28;20180;-57
2021/09/18 00:25:07;;;;;;;6.13;5.63;;;16.50;1.00;;;;;;5113193;28;20179;-59
2021/09/18 00:27:32;;;;;;;5.80;3.87;;;16.50;1.00;;;;;;5108782;28;20211;-58
2021/09/18 00:29:58;;;;;;;6.77;4.40;;;16.50;1.00;;;;;;5106697;28;20845;-58
2021/09/18 00:32:23;;;;;;;4.07;3.70;;;16.60;1.00;;;;;;5110099;28;20188;-57
2021/09/18 00:34:49;;;;;;;4.53;4.10;;;16.50;1.00;;;;;;5110672;28;20212;-59
2021/09/18 00:37:14;;;;;;;4.70;4.30;;;16.30;1.00;;;;;;5102238;28;20196;-58
2021/09/18 00:39:40;;;;;;;4.70;4.30;;;16.30;1.00;;;;;;5112675;28;20644;-58
2021/09/18 00:42:05;;;;;;;4.03;3.73;;;16.40;1.00;;;;;;5112226;28;20170;-59
2021/09/18 00:44:31;;;;;;;4.50;4.00;;;16.40;1.00;;;;;;5112567;28;20641;-59
2021/09/18 00:46:57;;;;;;;3.93;3.63;;;16.40;1.00;;;;;;5112560;28;20224;-58
2021/09/18 00:49:22;;;;;;;4.10;3.80;;;16.30;1.00;;;;;;5112038;28;20218;-58
2021/09/18 00:51:49;;;;;;;3.63;3.33;;;16.30;1.00;;;;;;5102107;28;20182;-58
2021/09/18 00:54:14;;;;;;;3.60;3.30;;;16.40;1.00;;;;;;5112355;28;20518;-58
2021/09/18 00:56:42;;;;;;;3.27;2.87;;;16.30;1.00;;;;;;5112676;28;20441;-59
2021/09/18 00:59:08;;;;;;;3.30;3.10;;;16.30;1.00;;;;;;5112533;28;20437;-59
2021/09/18 01:01:33;;;;;;;3.20;3.00;;;16.30;1.00;;;;;;5112468;28;20418;-59
2021/09/18 01:04:01;;;;;;;3.70;3.50;;;16.30;1.00;;;;;;5112616;28;20185;-59
2021/09/18 01:06:30;;;;;;;5.67;2.97;;;16.30;1.00;;;;;;5106678;28;20256;-58
2021/09/18 01:08:58;;;;;;;4.00;3.30;;;16.20;1.00;;;;;;5109308;28;20453;-58
2021/09/18 01:11:24;;;;;;;3.70;3.30;;;16.30;1.00;;;;;;5112305;28;20435;-58
2021/09/18 01:13:49;;;;;;;5.07;3.40;;;16.30;1.00;;;;;;5101272;28;20504;-59
2021/09/18 01:16:15;;;;;;;3.70;3.30;;;16.30;1.00;;;;;;5112558;28;20407;-57
2021/09/18 01:18:41;;;;;;;3.60;3.30;;;16.40;1.00;;;;;;5112119;28;20210;-58
2021/09/18 01:21:10;;;;;;;3.30;2.93;;;16.40;1.00;;;;;;5110640;28;20189;-58
2021/09/18 01:23:35;;;;;;;3.97;3.67;;;16.40;1.00;;;;;;5107966;28;20643;-58
2021/09/18 01:26:01;;;;;;;3.80;3.40;;;16.40;1.00;;;;;;5111994;28;20416;-59
2021/09/18 01:28:26;;;;;;;4.10;3.70;;;16.30;1.00;;;;;;5111394;28;20196;-58
2021/09/18 01:30:52;;;;;;;4.07;3.67;;;16.30;1.00;;;;;;5102282;28;20188;-57
2021/09/18 01:33:19;;;;;;;4.20;3.80;;;16.40;1.00;;;;;;5107064;28;20191;-58
2021/09/18 01:35:44;;;;;;;5.53;3.60;;;16.40;1.00;;;;;;5107104;28;20454;-58
2021/09/18 01:38:10;;;;;;;6.13;3.60;;;16.40;1.00;;;;;;5111874;28;20462;-58
2021/09/18 01:40:39;;;;;;;4.67;3.97;;;16.30;1.00;;;;;;5112099;28;20252;-58
2021/09/18 01:43:05;;;;;;;23.53;4.80;;;16.10;1.00;;;;;;5111842;28;20199;-58
2021/09/18 01:45:32;;;;;;;4.77;4.20;;;16.10;1.00;;;;;;5111461;28;20958;-58
2021/09/18 01:48:01;;;;;;;6.47;4.63;;;16.20;1.00;;;;;;5110446;28;20444;-57
2021/09/18 01:50:32;;;;;;;5.43;4.00;;;16.20;1.00;;;;;;5105689;28;20849;-57
2021/09/18 01:53:00;;;;;;;4.93;4.27;;;16.10;1.00;;;;;;5102773;28;20444;-58
2021/09/18 01:55:27;;;;;;;3.93;3.63;;;16.20;1.00;;;;;;5108920;28;20433;-57
2021/09/18 01:57:54;;;;;;;5.20;4.00;;;16.20;1.00;;;;;;5111030;28;20474;-57
2021/09/18 02:00:21;;;;;;;4.37;4.00;;;16.10;1.00;;;;;;5110850;28;20472;-57
2021/09/18 02:02:47;;;;;;;9.33;4.80;;;16.10;1.00;;;;;;5105646;28;20415;-58
2021/09/18 02:05:15;;;;;;;4.10;3.70;;;16.00;1.00;;;;;;5107845;28;20891;-58
2021/09/18 02:07:40;;;;;;;4.50;3.60;;;16.00;1.00;;;;;;5111086;28;20445;-57
2021/09/18 02:10:09;;;;;;;5.30;3.73;;;16.00;1.00;;;;;;5110419;28;20425;-57
2021/09/18 02:12:35;;;;;;;4.50;4.10;;;16.10;1.00;;;;;;5111624;28;20175;-57
2021/09/18 02:15:00;;;;;;;3.47;3.17;;;16.00;1.00;;;;;;5105410;28;20518;-57
2021/09/18 02:17:26;;;;;;;3.73;3.43;;;16.20;1.00;;;;;;5111556;28;20213;-59
2021/09/18 02:19:51;;;;;;;4.67;3.40;;;16.10;1.00;;;;;;5112965;28;20188;-58
2021/09/18 02:22:17;;;;;;;3.60;3.30;;;16.10;1.00;;;;;;5108592;28;20184;-58
2021/09/18 02:24:42;;;;;;;3.40;3.13;;;16.10;1.00;;;;;;5098468;28;20182;-57
2021/09/18 02:27:08;;;;;;;4.53;3.20;;;16.00;1.00;;;;;;5113355;28;20189;-58
2021/09/18 02:29:34;;;;;;;4.10;3.80;;;16.10;1.00;;;;;;5110987;28;20230;-59
2021/09/18 02:31:59;;;;;;;4.23;3.20;;;16.20;1.00;;;;;;5114277;28;20280;-58
2021/09/18 02:34:26;;;;;;;4.30;3.37;;;16.30;1.00;;;;;;5112254;28;20181;-58
2021/09/18 02:36:51;;;;;;;4.30;3.87;;;16.30;1.00;;;;;;5103456;28;20201;-59
2021/09/18 02:39:17;;;;;;;6.30;3.50;;;16.30;1.00;;;;;;5115589;28;20442;-58
2021/09/18 02:41:42;;;;;;;7.07;3.50;;;16.20;1.00;;;;;;5112281;28;20201;-60
2021/09/18 02:44:08;;;;;;;6.03;3.83;;;16.30;1.00;;;;;;5112446;28;20177;-58
2021/09/18 02:46:33;;;;;;;5.83;3.50;;;16.30;1.00;;;;;;5099526;28;20644;-58
2021/09/18 02:48:59;;;;;;;3.87;3.57;;;16.20;1.00;;;;;;5111473;28;20211;-58
2021/09/18 02:51:24;;;;;;;5.57;3.30;;;16.20;1.00;;;;;;5110784;28;20188;-56
2021/09/18 02:53:50;;;;;;;3.73;3.27;;;16.20;1.00;;;;;;5114445;28;20464;-59
2021/09/18 02:56:15;;;;;;;3.93;3.53;;;16.20;1.00;;;;;;5121714;27;20653;-57
2021/09/18 02:58:41;;;;;;;3.63;3.33;;;16.20;1.00;;;;;;5107383;28;20563;-58
2021/09/18 03:01:06;;;;;;;3.40;2.93;;;16.20;1.00;;;;;;5105118;28;20233;-58
2021/09/18 03:03:32;;;;;;;3.60;3.00;;;16.20;1.00;;;;;;5114823;28;20184;-58
2021/09/18 03:05:57;;;;;;;3.77;3.27;;;16.00;1.00;;;;;;5114553;28;20176;-57
2021/09/18 03:08:23;;;;;;;4.83;3.20;;;16.00;1.00;;;;;;5111988;28;20660;-57
2021/09/18 03:10:48;;;;;;;3.00;2.80;;;16.00;1.00;;;;;;5114378;28;20187;-59
2021/09/18 03:13:14;;;;;;;3.60;3.30;;;16.10;1.00;;;;;;5114311;28;20187;-57
2021/09/18 03:15:39;;;;;;;4.20;3.47;;;16.00;1.00;;;;;;5104827;28;20636;-58
2021/09/18 03:18:05;;;;;;;3.10;2.80;;;16.10;1.00;;;;;;5114280;28;20205;-60
2021/09/18 03:20:31;;;;;;;2.83;2.63;;;16.00;1.00;;;;;;5110590;28;20183;-57
2021/09/18 03:22:56;;;;;;;3.27;2.60;;;16.00;1.00;;;;;;5114180;28;20271;-58
2021/09/18 03:25:22;;;;;;;3.03;2.70;;;16.00;1.00;;;;;;5114089;28;20331;-58
2021/09/18 03:27:47;;;;;;;3.13;2.50;;;16.00;1.00;;;;;;5105433;28;20644;-60
2021/09/18 03:30:13;;;;;;;2.93;2.67;;;16.00;1.00;;;;;;5112887;28;20239;-59
2021/09/18 03:32:39;;;;;;;3.20;2.13;;;16.00;1.00;;;;;;5110618;28;20195;-58
2021/09/18 03:35:05;;;;;;;2.00;1.90;;;16.00;1.00;;;;;;5111985;28;20967;-57
2021/09/18 03:37:34;;;;;;;2.70;1.97;;;16.10;1.00;;;;;;5113560;28;20198;-58
2021/09/18 03:40:08;;;;;;;1.80;1.70;;;16.10;1.00;;;;;;5113929;28;20445;-59
2021/09/18 03:42:34;;;;;;;1.50;1.40;;;16.00;1.00;;;;;;5113443;28;20447;-59
2021/09/18 03:45:00;;;;;;;2.10;1.33;;;15.90;1.00;;;;;;5113911;28;20448;-58
2021/09/18 03:47:26;;;;;;;1.40;1.30;;;15.80;1.00;;;;;;5113411;28;20455;-57
2021/09/18 03:49:54;;;;;;;3.00;1.30;;;15.80;1.00;;;;;;5113449;28;20624;-57
2021/09/18 03:52:19;;;;;;;3.00;1.30;;;15.90;1.00;;;;;;5113629;28;20242;-58
2021/09/18 03:54:45;;;;;;;1.10;1.10;;;15.90;1.00;;;;;;5108573;28;20848;-57
2021/09/18 03:57:10;;;;;;;1.10;1.10;;;15.90;1.00;;;;;;5113310;28;20326;-58
2021/09/18 03:59:36;;;;;;;1.50;1.10;;;15.80;1.00;;;;;;5109312;28;20644;-57
2021/09/18 04:02:02;;;;;;;2.23;1.47;;;15.70;1.00;;;;;;5113011;28;20189;-57
2021/09/18 04:04:27;;;;;;;1.60;1.13;;;15.70;1.00;;;;;;5112096;28;20174;-57
2021/09/18 04:06:53;;;;;;;1.20;1.10;;;15.70;1.00;;;;;;5113362;28;20183;-59
2021/09/18 04:09:18;;;;;;;2.33;1.50;;;15.60;1.00;;;;;;5107973;28;20198;-59
2021/09/18 04:11:44;;;;;;;1.30;1.10;;;15.50;1.00;;;;;;5111505;28;20182;-57
2021/09/18 04:14:10;;;;;;;2.73;1.10;;;15.60;1.00;;;;;;5111241;28;20205;-58
2021/09/18 04:16:35;;;;;;;1.93;1.40;;;15.60;1.00;;;;;;5108516;28;20193;-57
2021/09/18 04:19:01;;;;;;;1.37;1.27;;;15.70;1.00;;;;;;5113262;28;20205;-58
2021/09/18 04:21:26;;;;;;;1.37;1.20;;;15.70;1.00;;;;;;5113246;28;20192;-58
2021/09/18 04:23:52;;;;;;;3.70;1.27;;;15.70;1.00;;;;;;5112559;28;20206;-57
2021/09/18 04:26:17;;;;;;;4.47;1.67;;;15.70;1.00;;;;;;5109338;28;20172;-58
2021/09/18 04:28:43;;;;;;;0.90;0.90;;;15.80;1.00;;;;;;5111291;28;20248;-58
2021/09/18 04:31:09;;;;;;;1.37;1.27;;;15.80;1.00;;;;;;5111096;28;20196;-57
2021/09/18 04:33:34;;;;;;;2.20;0.90;;;15.80;1.00;;;;;;5112676;28;20201;-58
2021/09/18 04:36:00;;;;;;;3.50;1.60;;;15.80;1.00;;;;;;5111659;28;20203;-57
2021/09/18 04:38:26;;;;;;;1.43;0.90;;;15.90;1.00;;;;;;5105562;28;20213;-57
2021/09/18 04:40:52;;;;;;;4.40;1.67;;;15.90;1.00;;;;;;5111701;28;20519;-59
2021/09/18 04:43:17;;;;;;;1.20;1.10;;;15.90;1.00;;;;;;5110485;28;20223;-57
2021/09/18 04:45:43;;;;;;;1.50;1.30;;;15.90;1.00;;;;;;5109883;28;20182;-58
2021/09/18 04:48:08;;;;;;;4.30;1.20;;;15.90;1.00;;;;;;5111845;28;20269;-57
2021/09/18 04:50:34;;;;;;;2.07;1.57;;;15.90;1.00;;;;;;5108654;28;20183;-57
2021/09/18 04:53:00;;;;;;;1.53;1.13;;;15.80;1.00;;;;;;5108306;28;20234;-57
2021/09/18 04:55:25;;;;;;;1.67;1.10;;;15.70;1.00;;;;;;5109854;28;20190;-58
2021/09/18 04:57:51;;;;;;;3.20;1.67;;;15.70;1.00;;;;;;5111438;28;20206;-59
2021/09/18 05:00:16;;;;;;;1.77;1.67;;;15.70;1.00;;;;;;5102345;28;20321;-58
2021/09/18 05:02:42;;;;;;;1.27;1.17;;;15.70;1.00;;;;;;5111073;28;20311;-57
2021/09/18 05:05:07;;;;;;;3.70;1.30;;;15.60;1.00;;;;;;5098459;28;20175;-57
2021/09/18 05:07:33;;;;;;;1.20;1.10;;;15.70;1.00;;;;;;5112170;28;20184;-57
2021/09/18 05:09:58;;;;;;;1.77;1.30;;;15.70;1.00;;;;;;5111276;28;20509;-58
2021/09/18 05:12:24;;;;;;;4.00;1.10;;;15.60;1.00;;;;;;5112164;28;20648;-59
2021/09/18 05:14:49;;;;;;;2.07;1.37;;;15.60;1.00;;;;;;5111670;28;20653;-57
2021/09/18 05:17:15;;;;;;;1.40;1.30;;;15.50;1.00;;;;;;5111682;28;20204;-58
2021/09/18 05:19:41;;;;;;;5.00;1.17;;;15.50;1.00;;;;;;5112250;28;20206;-58
2021/09/18 05:22:07;;;;;;;2.93;1.33;;;15.60;1.00;;;;;;5106080;28;20660;-57
2021/09/18 05:24:32;;;;;;;1.20;1.03;;;15.70;1.00;;;;;;5109491;28;20678;-57
2021/09/18 05:26:58;;;;;;;1.57;1.47;;;15.70;1.00;;;;;;5112061;28;20441;-57
2021/09/18 05:29:23;;;;;;;1.40;1.30;;;15.60;1.00;;;;;;5112032;28;20190;-57
2021/09/18 05:31:49;;;;;;;1.77;1.60;;;15.60;1.00;;;;;;5112124;28;20176;-59
2021/09/18 05:34:15;;;;;;;1.50;1.13;;;15.70;1.00;;;;;;5111811;28;20386;-58
2021/09/18 05:36:40;;;;;;;2.20;1.53;;;15.70;1.00;;;;;;5108765;28;20214;-57
2021/09/18 05:39:06;;;;;;;2.67;1.50;;;15.70;1.00;;;;;;5111149;28;20206;-59
2021/09/18 05:41:31;;;;;;;4.93;1.43;;;15.70;1.00;;;;;;5111922;28;20175;-58
2021/09/18 05:43:57;;;;;;;2.20;1.33;;;15.80;1.00;;;;;;5110901;28;20170;-58
2021/09/18 05:46:23;;;;;;;1.60;1.50;;;15.80;1.00;;;;;;5110398;28;20769;-58
2021/09/18 05:48:48;;;;;;;1.93;1.13;;;15.80;1.00;;;;;;5111979;28;20300;-58
2021/09/18 05:51:14;;;;;;;1.27;1.17;;;15.80;1.00;;;;;;5112246;28;20193;-58
2021/09/18 05:53:39;;;;;;;5.30;2.00;;;15.60;1.00;;;;;;5108274;28;20179;-57
2021/09/18 05:56:05;;;;;;;3.03;1.40;;;15.70;1.00;;;;;;5115949;28;20183;-59
2021/09/18 05:58:31;;;;;;;4.30;1.50;;;15.60;1.00;;;;;;5110986;28;20281;-57
2021/09/18 06:00:56;;;;;;;2.33;1.37;;;15.70;1.00;;;;;;5114390;28;20185;-58
2021/09/18 06:03:21;;;;;;;3.07;1.27;;;15.80;1.00;;;;;;5102601;28;20210;-58
2021/09/18 06:05:47;;;;;;;3.53;2.30;;;15.80;1.00;;;;;;5116010;28;20539;-58
2021/09/18 06:08:13;;;;;;;2.60;2.40;;;15.80;1.00;;;;;;5115234;28;20679;-57
2021/09/18 06:10:38;;;;;;;2.87;1.33;;;15.80;1.00;;;;;;5115818;28;20183;-59
2021/09/18 06:13:04;;;;;;;4.23;1.30;;;15.90;1.00;;;;;;5114318;28;20183;-60
2021/09/18 06:15:29;;;;;;;1.67;1.50;;;15.80;1.00;;;;;;5112480;28;20277;-58
2021/09/18 06:17:55;;;;;;;4.80;1.80;;;15.90;1.00;;;;;;5113050;28;20218;-58
2021/09/18 06:20:20;;;;;;;3.70;1.87;;;15.90;1.00;;;;;;5113831;28;20267;-59
2021/09/18 06:22:46;;;;;;;2.50;1.67;;;15.90;1.00;;;;;;5113734;28;20187;-58
2021/09/18 06:25:12;;;;;;;1.50;1.40;;;15.90;1.00;;;;;;5114646;28;20174;-59
2021/09/18 06:27:39;;;;;;;1.23;1.13;;;15.90;1.00;;;;;;5114663;28;20696;-57
2021/09/18 06:30:06;;;;;;;1.60;1.50;;;15.90;1.00;;;;;;5110499;28;20493;-57
2021/09/18 06:32:32;;;;;;;2.27;1.50;;;15.90;1.00;;;;;;5112254;28;20514;-58
2021/09/18 06:34:57;;;;;;;1.90;1.30;;;15.90;1.00;;;;;;5115041;28;20445;-59
2021/09/18 06:37:23;;;;;;;3.60;1.50;;;16.00;1.00;;;;;;5105707;28;20685;-58
2021/09/18 06:39:48;;;;;;;1.50;1.40;;;16.00;1.00;;;;;;5108554;28;20183;-59
2021/09/18 06:42:14;;;;;;;2.07;1.87;;;16.00;1.00;;;;;;5114744;28;20185;-58
2021/09/18 06:44:41;;;;;;;3.90;1.73;;;16.00;1.00;;;;;;5111578;28;20604;-57
2021/09/18 06:47:07;;;;;;;1.70;1.60;;;15.80;1.00;;;;;;5113778;28;20640;-56
2021/09/18 06:49:32;;;;;;;1.60;1.50;;;15.90;1.00;;;;;;5114553;28;20866;-59
2021/09/18 06:51:58;;;;;;;1.70;1.30;;;15.90;1.00;;;;;;5109796;28;20519;-59
2021/09/18 06:54:24;;;;;;;1.53;1.43;;;15.80;1.00;;;;;;5113943;28;20187;-59
2021/09/18 06:56:49;;;;;;;1.60;1.50;;;16.00;1.00;;;;;;5114512;28;20191;-57
2021/09/18 06:59:15;;;;;;;3.07;1.73;;;16.10;1.00;;;;;;5114513;28;20262;-59
2021/09/18 07:01:40;;;;;;;5.67;2.47;;;16.10;1.00;;;;;;5114375;28;20644;-60
2021/09/18 07:04:06;;;;;;;1.50;1.40;;;16.20;1.00;;;;;;5107034;28;20199;-57
2021/09/18 07:06:31;;;;;;;3.30;1.90;;;16.20;1.00;;;;;;5112697;28;20180;-59
2021/09/18 07:08:57;;;;;;;2.80;1.90;;;16.30;1.00;;;;;;5110456;28;20186;-59
2021/09/18 07:11:22;;;;;;;2.13;1.67;;;16.20;1.00;;;;;;5108266;28;20186;-59
2021/09/18 07:13:48;;;;;;;1.63;1.53;;;16.20;1.00;;;;;;5111217;28;20229;-62
2021/09/18 07:16:14;;;;;;;2.20;1.87;;;16.20;1.00;;;;;;5110435;28;20189;-63
2021/09/18 07:18:39;;;;;;;1.70;1.60;;;16.30;1.00;;;;;;5108490;28;20666;-65
2021/09/18 07:21:05;;;;;;;1.70;1.43;;;16.40;1.00;;;;;;5111156;28;20187;-64
2021/09/18 07:23:30;;;;;;;3.33;1.90;;;16.60;1.00;;;;;;5112619;28;20187;-62
2021/09/18 07:25:56;;;;;;;2.87;1.67;;;17.00;1.00;;;;;;5112407;28;20548;-64
2021/09/18 07:28:21;;;;;;;2.60;1.80;;;16.60;1.00;;;;;;5109218;28;20189;-63
2021/09/18 07:30:47;;;;;;;3.30;1.90;;;16.40;1.00;;;;;;5106734;28;20598;-65
2021/09/18 07:33:12;;;;;;;2.70;1.30;;;16.30;1.00;;;;;;5110021;28;20191;-63
2021/09/18 07:35:38;;;;;;;1.40;1.30;;;16.40;1.00;;;;;;5108678;28;20546;-65
2021/09/18 07:38:04;;;;;;;1.47;1.37;;;16.50;1.00;;;;;;5110001;28;20220;-63
2021/09/18 07:40:32;;;;;;;2.87;1.40;;;16.60;1.00;;;;;;5109350;28;20207;-64
2021/09/18 07:42:58;;;;;;;1.23;1.00;;;16.60;1.00;;;;;;5111371;28;20454;-63
2021/09/18 07:45:23;;;;;;;2.90;1.30;;;16.40;1.00;;;;;;5113232;28;20906;-58
2021/09/18 07:47:49;;;;;;;1.73;1.30;;;16.70;1.00;;;;;;5114411;28;20428;-61
2021/09/18 07:50:14;;;;;;;1.67;1.10;;;16.80;1.00;;;;;;5113926;28;20285;-60
2021/09/18 07:52:40;;;;;;;1.93;1.20;;;17.00;1.00;;;;;;5108868;28;20193;-58
2021/09/18 07:55:07;;;;;;;1.63;1.00;;;17.20;1.00;;;;;;5113900;28;20669;-61
2021/09/18 07:57:33;;;;;;;1.47;1.03;;;17.10;1.00;;;;;;5114081;28;20667;-62
2021/09/18 07:59:59;;;;;;;1.70;1.10;;;17.20;1.00;;;;;;5112462;28;20433;-59
2021/09/18 08:02:24;;;;;;;4.10;1.00;;;17.30;1.00;;;;;;5112070;28;20186;-59
2021/09/18 08:04:50;;;;;;;2.30;1.20;;;17.20;1.00;;;;;;5113401;28;20232;-60
2021/09/18 08:07:18;;;;;;;0.87;0.80;;;17.10;1.00;;;;;;5113470;28;20549;-59
2021/09/18 08:09:44;;;;;;;1.30;0.83;;;17.20;1.00;;;;;;5113771;28;20192;-60
2021/09/18 08:12:09;;;;;;;1.27;1.10;;;17.30;1.00;;;;;;5113608;28;20920;-59
2021/09/18 08:14:35;;;;;;;1.77;0.90;;;17.20;1.00;;;;;;5113603;28;20188;-58
2021/09/18 08:17:00;;;;;;;1.93;1.00;;;17.20;1.00;;;;;;5113276;28;20231;-60
2021/09/18 08:19:26;;;;;;;1.70;1.13;;;17.20;1.00;;;;;;5113220;28;20189;-61
2021/09/18 08:21:52;;;;;;;2.50;0.90;;;17.10;1.00;;;;;;5113611;28;20216;-59
2021/09/18 08:24:18;;;;;;;2.07;1.00;;;17.30;1.00;;;;;;5113533;28;20179;-59
2021/09/18 08:26:44;;;;;;;1.77;1.00;;;17.30;1.00;;;;;;5113283;28;20776;-60
2021/09/18 08:29:10;;;;;;;2.13;0.80;;;17.00;1.00;;;;;;5113274;28;20182;-61
2021/09/18 08:31:35;;;;;;;1.10;0.80;;;17.10;1.00;;;;;;5112323;28;20183;-60
2021/09/18 08:34:01;;;;;;;1.43;0.90;;;17.10;1.00;;;;;;5113166;28;20195;-60
2021/09/18 08:36:26;;;;;;;1.60;0.73;;;17.30;1.00;;;;;;5110925;28;20267;-60
2021/09/18 08:38:52;;;;;;;2.10;0.90;;;17.20;1.00;;;;;;5113329;28;20287;-59
2021/09/18 08:41:18;;;;;;;0.80;0.70;;;17.30;1.00;;;;;;5112479;28;20585;-60
2021/09/18 08:43:44;;;;;;;2.20;1.67;;;17.20;1.00;;;;;;5110209;28;20221;-58
2021/09/18 08:46:10;;;;;;;4.00;2.80;;;17.10;1.00;;;;;;5093282;28;20532;-58
2021/09/18 08:48:39;;;;;;;1.63;1.07;;;17.10;1.00;;;;;;5105124;28;20510;-61
2021/09/18 08:51:06;;;;;;;1.33;1.07;;;17.00;1.00;;;;;;5108276;28;20430;-60
2021/09/18 08:53:31;;;;;;;1.77;0.73;;;17.10;1.00;;;;;;5112105;28;20445;-60
2021/09/18 08:55:58;;;;;;;0.80;0.70;;;17.10;1.00;;;;;;5111680;28;20452;-60
2021/09/18 08:58:24;;;;;;;1.47;0.60;;;17.10;1.00;;;;;;5110506;28;20242;-59
2021/09/18 09:00:52;;;;;;;2.00;0.80;;;17.10;1.00;;;;;;5111974;28;20427;-60
2021/09/18 09:03:27;;;;;;;1.07;0.80;;;17.20;1.00;;;;;;5110256;28;20523;-59
2021/09/18 09:06:17;;;;;;;2.37;1.50;;;17.30;1.00;;;;;;5110573;28;20465;-59
2021/09/18 09:08:58;;;;;;;3.30;2.27;;;17.40;1.00;;;;;;5111329;28;20448;-60
2021/09/18 09:11:27;;;;;;;1.50;1.30;;;17.50;1.00;;;;;;5106252;28;20410;-59
2021/09/18 09:14:04;;;;;;;2.20;1.60;;;17.30;1.00;;;;;;5110623;28;20419;-62
2021/09/18 09:16:35;;;;;;;2.83;1.70;;;17.20;1.00;;;;;;5111993;28;20795;-59
2021/09/18 09:19:15;;;;;;;1.30;1.20;;;17.20;1.00;;;;;;5111003;28;20473;-62
2021/09/18 09:21:49;;;;;;;1.43;1.10;;;17.10;1.00;;;;;;5108487;28;20533;-61
2021/09/18 09:24:18;;;;;;;2.07;1.60;;;17.00;1.00;;;;;;5110360;28;20492;-60
2021/09/18 09:27:09;;;;;;;1.23;0.97;;;17.00;1.00;;;;;;5106782;28;20396;-60
2021/09/18 09:29:40;;;;;;;2.33;1.30;;;17.10;1.00;;;;;;5113524;28;20425;-60
2021/09/18 09:32:34;;;;;;;3.37;1.10;;;17.30;1.00;;;;;;5115050;28;20426;-60
2021/09/18 09:35:08;;;;;;;1.30;1.17;;;17.00;1.00;;;;;;5112552;28;20825;-61
2021/09/18 09:37:34;;;;;;;2.93;1.10;;;16.90;1.00;;;;;;5114794;28;20510;-60
2021/09/18 09:40:04;;;;;;;1.90;1.23;;;16.90;1.00;;;;;;5111499;28;20553;-60
2021/09/18 09:42:32;;;;;;;1.53;1.10;;;16.80;1.00;;;;;;5113544;28;20184;-61
2021/09/18 09:45:10;;;;;;;2.20;1.20;;;16.90;1.00;;;;;;5114371;28;20428;-60
2021/09/18 09:47:35;;;;;;;2.40;1.00;;;17.00;1.00;;;;;;5111240;28;20433;-62
2021/09/18 09:50:03;;;;;;;3.73;1.20;;;17.10;1.00;;;;;;5114271;28;21004;-61
2021/09/18 09:52:34;;;;;;;0.80;0.80;;;16.90;1.00;;;;;;5113055;28;20183;-60
2021/09/18 09:55:14;;;;;;;1.70;1.10;;;17.00;1.00;;;;;;5113777;28;20523;-61
2021/09/18 09:57:43;;;;;;;1.83;1.43;;;17.00;1.00;;;;;;5114987;28;20474;-61
2021/09/18 10:00:14;;;;;;;1.23;0.87;;;16.80;1.00;;;;;;5112548;28;20511;-61
2021/09/18 10:02:42;;;;;;;1.40;0.90;;;16.90;1.00;;;;;;5113913;27;20436;-59
2021/09/18 10:05:12;;;;;;;1.73;1.20;;;16.90;1.00;;;;;;5114673;28;20435;-62
2021/09/18 10:07:39;;;;;;;1.77;1.10;;;17.10;1.00;;;;;;5114650;27;20490;-61
2021/09/18 10:10:07;;;;;;;2.03;1.10;;;17.00;1.00;;;;;;5101607;28;20416;-60
2021/09/18 10:12:35;;;;;;;1.70;1.43;;;17.10;1.00;;;;;;5114839;28;20438;-61
2021/09/18 10:15:06;;;;;;;1.43;1.00;;;17.10;1.00;;;;;;5100399;28;20446;-59
2021/09/18 10:17:35;;;;;;;3.47;1.23;;;17.00;1.00;;;;;;5111807;28;20928;-60
2021/09/18 10:25:34;;;;;;;1.30;1.20;;;17.20;1.00;;;;;;5113648;28;20837;-60
2021/09/18 10:28:09;;;;;;;2.23;1.30;;;17.20;1.00;;;;;;5114173;28;21034;-60
2021/09/18 10:30:36;;;;;;;2.13;1.30;;;17.10;1.00;;;;;;5113939;28;20473;-61
2021/09/18 10:33:03;;;;;;;2.40;1.10;;;17.10;1.00;;;;;;5114129;28;20909;-60
2021/09/18 10:35:30;;;;;;;1.30;1.20;;;17.20;1.00;;;;;;5109350;28;20415;-61
2021/09/18 10:37:57;;;;;;;1.57;1.30;;;17.20;1.00;;;;;;5111289;28;20467;-60
2021/09/18 10:40:22;;;;;;;1.30;1.20;;;17.10;1.00;;;;;;5110621;28;20430;-60
2021/09/18 10:42:50;;;;;;;2.17;1.37;;;17.10;1.00;;;;;;5113208;28;20445;-61
2021/09/18 10:45:17;;;;;;;2.90;1.30;;;17.00;1.00;;;;;;5111592;28;20178;-60
2021/09/18 10:47:49;;;;;;;1.50;1.30;;;17.00;1.00;;;;;;5113816;28;20484;-61
2021/09/18 10:50:26;;;;;;;3.10;2.00;;;17.00;1.00;;;;;;5112677;28;20472;-61
2021/09/18 10:53:05;;;;;;;2.33;1.57;;;16.90;1.00;;;;;;5113235;28;20470;-60
2021/09/18 10:55:48;;;;;;;4.83;1.63;;;16.70;1.00;;;;;;5113393;28;20490;-58
2021/09/18 10:58:14;;;;;;;2.13;2.03;;;16.70;1.00;;;;;;5113648;28;20484;-59
2021/09/18 11:00:42;;;;;;;2.33;2.00;;;16.70;1.00;;;;;;5110497;28;20419;-61
2021/09/18 11:03:08;;;;;;;2.37;1.93;;;16.70;1.00;;;;;;5114119;28;20191;-61
2021/09/18 11:05:36;;;;;;;5.77;2.80;;;16.70;1.00;;;;;;5113735;28;20437;-60
2021/09/18 11:08:14;;;;;;;2.77;2.57;;;16.60;1.00;;;;;;5111716;28;20439;-60
2021/09/18 11:10:45;;;;;;;8.20;3.70;;;16.60;1.00;;;;;;5111798;28;20931;-60
2021/09/18 11:13:11;;;;;;;4.00;2.97;;;16.50;1.00;;;;;;5112940;28;21046;-61
2021/09/18 11:15:48;;;;;;;2.97;2.77;;;16.40;1.00;;;;;;5107953;28;20521;-59
2021/09/18 11:18:30;;;;;;;3.90;3.33;;;16.30;1.00;;;;;;5113102;28;20295;-60
2021/09/18 11:21:24;;;;;;;6.23;3.43;;;16.20;1.00;;;;;;5113115;28;20407;-62
2021/09/18 11:23:54;;;;;;;4.33;4.03;;;16.20;1.00;;;;;;5106717;28;20424;-60
2021/09/18 11:26:41;;;;;;;4.43;4.13;;;16.20;1.00;;;;;;5113522;28;20410;-60
2021/09/18 11:29:23;;;;;;;5.20;4.70;;;16.10;1.00;;;;;;5113109;28;20809;-61
2021/09/18 11:32:02;;;;;;;5.23;4.70;;;15.90;1.00;;;;;;5110866;28;20485;-60
2021/09/18 11:34:37;;;;;;;5.83;5.33;;;15.80;1.00;;;;;;5113263;28;20516;-58
2021/09/18 11:37:06;;;;;;;5.30;4.90;;;15.90;1.00;;;;;;5113199;28;20809;-59
2021/09/18 11:39:49;;;;;;;5.47;4.87;;;16.00;1.00;;;;;;5101864;28;20497;-60
2021/09/18 11:42:16;;;;;;;5.17;4.67;;;16.10;1.00;;;;;;5113383;28;20414;-59
2021/09/18 11:44:42;;;;;;;4.53;4.13;;;16.10;1.00;;;;;;5113283;28;20448;-61
2021/09/18 11:47:08;;;;;;;5.70;5.23;;;16.20;1.00;;;;;;5109778;28;21019;-60
2021/09/18 11:49:34;;;;;;;4.70;4.40;;;16.30;1.00;;;;;;5112751;28;20469;-61
2021/09/18 11:52:01;;;;;;;5.50;5.00;;;16.40;1.00;;;;;;5110110;28;20531;-61
2021/09/18 11:54:27;;;;;;;4.50;4.20;;;16.60;1.00;;;;;;5112636;28;20298;-60
2021/09/18 11:56:52;;;;;;;4.80;4.00;;;16.60;1.00;;;;;;5100122;28;20955;-60
2021/09/18 11:59:18;;;;;;;5.90;4.27;;;16.90;1.00;;;;;;5111576;28;20352;-60
2021/09/18 12:01:48;;;;;;;3.80;3.60;;;16.80;1.00;;;;;;5106744;28;20191;-60
2021/09/18 12:04:14;;;;;;;4.20;3.80;;;16.80;1.00;;;;;;5112423;28;20198;-60
2021/09/18 12:06:40;;;;;;;3.13;2.93;;;16.90;1.00;;;;;;5111384;28;20448;-60
2021/09/18 12:09:06;;;;;;;4.03;3.73;;;16.70;1.00;;;;;;5111446;28;20452;-60
2021/09/18 12:11:37;;;;;;;3.60;3.30;;;16.70;1.00;;;;;;5112504;28;20453;-60
2021/09/18 12:14:03;;;;;;;3.50;3.30;;;16.60;1.00;;;;;;5111298;28;20450;-61
2021/09/18 12:16:30;;;;;;;3.40;3.13;;;16.60;1.00;;;;;;5114102;27;20445;-61
2021/09/18 12:18:57;;;;;;;5.23;3.73;;;16.80;1.00;;;;;;5113813;27;20460;-59
2021/09/18 12:21:25;;;;;;;3.50;3.30;;;16.90;1.00;;;;;;5106941;28;20585;-59
2021/09/18 12:23:56;;;;;;;3.33;3.00;;;17.10;1.00;;;;;;5112447;28;20447;-61
2021/09/18 12:26:25;;;;;;;3.73;3.43;;;17.00;1.00;;;;;;5100483;28;20430;-59
2021/09/18 12:29:05;;;;;;;3.77;3.47;;;16.70;1.00;;;;;;5112130;28;20513;-60
2021/09/18 12:31:31;;;;;;;4.47;4.17;;;16.90;1.00;;;;;;5110042;28;20425;-60
2021/09/18 12:34:09;;;;;;;3.87;3.47;;;17.00;1.00;;;;;;5111261;28;20441;-60
2021/09/18 12:36:35;;;;;;;4.20;3.90;;;17.20;1.00;;;;;;5107647;28;20205;-61
2021/09/18 12:39:03;;;;;;;3.70;3.50;;;17.20;1.00;;;;;;5108191;28;20462;-61
2021/09/18 12:41:28;;;;;;;4.40;3.70;;;17.20;1.00;;;;;;5111830;28;20437;-61
2021/09/18 12:44:01;;;;;;;4.67;4.27;;;17.10;1.00;;;;;;5110970;28;20430;-59
2021/09/18 12:46:29;;;;;;;5.10;4.80;;;17.20;1.00;;;;;;5111031;27;20215;-59
2021/09/18 12:49:03;;;;;;;5.17;4.77;;;17.20;1.00;;;;;;5109807;27;20488;-59
2021/09/18 12:51:31;;;;;;;4.17;3.87;;;17.20;1.00;;;;;;5110661;28;20445;-59
2021/09/18 12:54:00;;;;;;;4.50;4.20;;;17.30;1.00;;;;;;5109783;28;20421;-58
2021/09/18 12:56:29;;;;;;;3.80;3.50;;;17.40;1.00;;;;;;5108971;28;20434;-61
2021/09/18 12:59:05;;;;;;;4.03;3.73;;;17.50;1.00;;;;;;5105614;28;20477;-60
2021/09/18 13:01:57;;;;;;;3.57;3.27;;;17.60;1.00;;;;;;5099349;28;20526;-61
2021/09/18 13:04:31;;;;;;;3.97;3.57;;;17.70;1.00;;;;;;5100838;27;20869;-59